Time;durP1;ratioP1;P1;durP2;ratioP2;P2;SDS_P1;SDS_P2;PMS_P1;PMS_P2;Temp;Humidity;BMP_temperature;BMP_pressure;BME280_temperature;BME280_humidity;BME280_pressure;Samples;Min_cycle;Max_cycle;Signal;HPM_P1;HPM_P2
2022/12/02 00:00:47;;;;;;;;;;;;;;;4.52;100.00;102734.94;5087848;28;19940;-75
2022/12/02 00:03:16;;;;;;;;;;;;;;;4.52;100.00;102735.78;5078968;28;20317;-75
2022/12/02 00:05:41;;;;;;;;;;;;;;;4.53;100.00;102731.47;5074314;28;19935;-75
2022/12/02 00:08:15;;;;;;;;;;;;;;;4.55;100.00;102732.38;5074956;28;19925;-75
2022/12/02 00:10:42;;;;;;;;;;;;;;;4.55;100.00;102734.97;5076305;28;19920;-75
2022/12/02 00:13:18;;;;;;;;;;;;;;;4.56;100.00;102734.13;5077896;28;19921;-75
2022/12/02 00:15:44;;;;;;;;;;;;;;;4.56;100.00;102727.19;5072428;28;19994;-75
2022/12/02 00:18:10;;;;;;;;;;;;;;;4.58;100.00;102729.81;5072374;28;19912;-75
2022/12/02 00:20:36;;;;;;;;;;;;;;;4.59;100.00;102729.84;5076340;28;20139;-76
2022/12/02 00:23:01;;;;;;;;;;;;;;;4.60;100.00;102728.09;5086257;28;19923;-76
2022/12/02 00:25:27;;;;;;;;;;;;;;;4.61;100.00;102722.94;5090902;28;19979;-75
2022/12/02 00:27:52;;;;;;;;;;;;;;;4.63;100.00;102717.78;5089820;28;19924;-75
2022/12/02 00:30:17;;;;;;;;;;;;;;;4.64;100.00;102711.75;5075927;28;20263;-75
2022/12/02 00:32:42;;;;;;;;;;;;;;;4.65;100.00;102715.22;5090337;28;19919;-75
2022/12/02 00:35:08;;;;;;;;;;;;;;;4.66;100.00;102712.66;5090603;28;19931;-75
2022/12/02 00:37:33;;;;;;;;;;;;;;;4.68;100.00;102717.88;5090370;28;19927;-75
2022/12/02 00:39:58;;;;;;;;;;;;;;;4.67;100.00;102710.91;5088427;28;20157;-76
2022/12/02 00:42:23;;;;;;;;;;;;;;;4.67;100.00;102704.00;5089081;28;19944;-75
2022/12/02 00:47:33;;;;;;;;;;;;;;;4.70;100.00;102710.97;5089088;28;19988;-76
2022/12/02 00:49:58;;;;;;;;;;;;;;;4.69;100.00;102704.88;5087997;28;19924;-76
2022/12/02 00:52:23;;;;;;;;;;;;;;;4.70;100.00;102703.19;5089925;28;19920;-76
2022/12/02 00:54:48;;;;;;;;;;;;;;;4.70;100.00;102709.22;5091197;28;19924;-75
2022/12/02 00:57:14;;;;;;;;;;;;;;;4.70;100.00;102703.19;5089931;28;20150;-76
2022/12/02 00:59:39;;;;;;;;;;;;;;;4.71;100.00;102702.31;5088403;28;20269;-75
2022/12/02 01:02:04;;;;;;;;;;;;;;;4.72;100.00;102711.84;5089940;28;20250;-75
2022/12/02 01:04:30;;;;;;;;;;;;;;;4.71;100.00;102699.72;5081369;28;19924;-75
2022/12/02 01:06:55;;;;;;;;;;;;;;;4.72;100.00;102696.28;5087666;28;19927;-76
2022/12/02 01:09:21;;;;;;;;;;;;;;;4.70;100.00;102695.38;5088965;28;19916;-76
2022/12/02 01:11:46;;;;;;;;;;;;;;;4.71;100.00;102689.31;5088239;28;20108;-76
2022/12/02 01:14:11;;;;;;;;;;;;;;;4.70;100.00;102691.06;5087335;28;19916;-76
2022/12/02 01:16:36;;;;;;;;;;;;;;;4.71;100.00;102698.00;5089712;28;19926;-76
2022/12/02 01:19:02;;;;;;;;;;;;;;;4.70;100.00;102693.66;5086018;28;19998;-73
2022/12/02 01:21:27;;;;;;;;;;;;;;;4.69;100.00;102694.50;5088132;28;19928;-75
2022/12/02 01:23:53;;;;;;;;;;;;;;;4.69;100.00;102699.69;5086816;28;19924;-76
2022/12/02 01:26:18;;;;;;;;;;;;;;;4.70;100.00;102700.59;5089751;28;20155;-75
2022/12/02 01:28:43;;;;;;;;;;;;;;;4.69;100.00;102704.88;5086102;28;19912;-76
2022/12/02 01:31:08;;;;;;;;;;;;;;;4.68;100.00;102697.97;5087162;28;20020;-74
2022/12/02 01:33:34;;;;;;;;;;;;;;;4.68;100.00;102697.97;5089711;28;19997;-73
2022/12/02 01:35:59;;;;;;;;;;;;;;;4.69;100.00;102697.09;5078219;28;19957;-73
2022/12/02 01:38:24;;;;;;;;;;;;;;;4.70;100.00;102698.00;5089024;28;19924;-73
2022/12/02 01:40:49;;;;;;;;;;;;;;;4.71;100.00;102695.41;5088227;28;20034;-74
2022/12/02 01:43:15;;;;;;;;;;;;;;;4.71;100.00;102699.72;5088683;28;19998;-73
2022/12/02 01:45:41;;;;;;;;;;;;;;;4.70;100.00;102693.66;5088682;28;19928;-73
2022/12/02 01:48:07;;;;;;;;;;;;;;;4.72;100.00;102704.94;5087373;28;20150;-73
2022/12/02 01:50:32;;;;;;;;;;;;;;;4.73;100.00;102704.09;5086587;28;19912;-73
2022/12/02 01:52:57;;;;;;;;;;;;;;;4.73;100.00;102705.78;5089204;28;19920;-73
2022/12/02 01:55:24;;;;;;;;;;;;;;;4.72;100.00;102702.34;5088765;28;19951;-73
2022/12/02 01:57:50;;;;;;;;;;;;;;;4.73;100.00;102705.78;5088947;28;20280;-73
2022/12/02 02:00:15;;;;;;;;;;;;;;;4.73;100.00;102701.50;5087010;28;19923;-73
2022/12/02 02:02:41;;;;;;;;;;;;;;;4.74;100.00;102700.63;5087988;28;20136;-73
2022/12/02 02:05:26;;;;;;;;;;;;;;;4.73;100.00;102701.50;5079480;28;20228;-73
2022/12/02 02:07:53;;;;;;;;;;;;;;;4.73;100.00;102691.13;5086395;28;19924;-73
2022/12/02 02:10:20;;;;;;;;;;;;;;;4.73;100.00;102698.00;5085082;28;20162;-73
2022/12/02 02:12:45;;;;;;;;;;;;;;;4.71;100.00;102690.22;5087309;28;19920;-73
2022/12/02 02:15:12;;;;;;;;;;;;;;;4.73;100.00;102698.91;5087403;28;19917;-73
2022/12/02 02:17:37;;;;;;;;;;;;;;;4.74;100.00;102692.84;5087426;28;19918;-73
2022/12/02 02:20:04;;;;;;;;;;;;;;;4.75;100.00;102693.72;5087928;28;19951;-73
2022/12/02 02:22:38;;;;;;;;;;;;;;;4.76;100.00;102690.25;5088948;28;20129;-73
2022/12/02 02:25:07;;;;;;;;;;;;;;;4.73;100.00;102685.03;5089605;28;19961;-73
2022/12/02 02:27:33;;;;;;;;;;;;;;;4.72;100.00;102678.09;5071943;28;19920;-73
2022/12/02 02:29:58;;;;;;;;;;;;;;;4.73;100.00;102675.53;5089003;28;19921;-73
2022/12/02 02:32:23;;;;;;;;;;;;;;;4.72;100.00;102671.19;5086770;28;19916;-74
2022/12/02 02:34:48;;;;;;;;;;;;;;;4.74;100.00;102666.88;5076825;28;19928;-74
2022/12/02 02:37:13;;;;;;;;;;;;;;;4.75;100.00;102665.19;5084164;28;20268;-73
2022/12/02 02:39:39;;;;;;;;;;;;;;;4.73;100.00;102662.56;5088384;28;20125;-73
2022/12/02 02:42:04;;;;;;;;;;;;;;;4.72;100.00;102658.22;5083156;28;20280;-74
2022/12/02 02:44:29;;;;;;;;;;;;;;;4.73;100.00;102653.88;5085057;28;19931;-74
2022/12/02 02:46:55;;;;;;;;;;;;;;;4.72;100.00;102657.34;5086353;28;19916;-74
2022/12/02 02:49:20;;;;;;;;;;;;;;;4.72;100.00;102658.22;5086657;28;19921;-73
2022/12/02 02:51:46;;;;;;;;;;;;;;;4.71;100.00;102653.88;5086653;28;19970;-73
2022/12/02 02:54:11;;;;;;;;;;;;;;;4.69;100.00;102658.16;5088092;28;20373;-73
2022/12/02 02:56:37;;;;;;;;;;;;;;;4.67;100.00;102662.47;5085628;28;19923;-73
2022/12/02 02:59:02;;;;;;;;;;;;;;;4.62;100.00;102656.38;5087957;28;19922;-73
2022/12/02 03:01:32;;;;;;;;;;;;;;;4.55;100.00;102652.81;5085089;28;19959;-76
2022/12/02 03:04:00;;;;;;;;;;;;;;;4.54;100.00;102657.97;5087021;28;20553;-74
2022/12/02 03:06:27;;;;;;;;;;;;;;;4.53;100.00;102644.13;5086878;28;19946;-74
2022/12/02 03:08:53;;;;;;;;;;;;;;;4.54;100.00;102640.66;5086652;28;19943;-73
2022/12/02 03:11:18;;;;;;;;;;;;;;;4.55;100.00;102650.22;5087841;28;20275;-73
2022/12/02 03:13:45;;;;;;;;;;;;;;;4.55;100.00;102645.03;5087848;28;19928;-73
2022/12/02 03:16:11;;;;;;;;;;;;;;;4.54;100.00;102635.47;5088423;28;20190;-74
2022/12/02 03:18:37;;;;;;;;;;;;;;;4.57;100.00;102638.13;5087294;28;19912;-73
2022/12/02 03:21:03;;;;;;;;;;;;;;;4.57;100.00;102632.94;5088311;28;20350;-74
2022/12/02 03:23:29;;;;;;;;;;;;;;;4.60;100.00;102637.28;5086763;28;19924;-74
2022/12/02 03:25:55;;;;;;;;;;;;;;;4.61;100.00;102634.72;5088371;28;20219;-73
2022/12/02 03:28:21;;;;;;;;;;;;;;;4.60;100.00;102637.28;5085227;28;19928;-73
2022/12/02 03:30:46;;;;;;;;;;;;;;;4.58;100.00;102639.88;5086570;28;20015;-73
2022/12/02 03:33:11;;;;;;;;;;;;;;;4.59;100.00;102643.34;5084876;28;19971;-73
2022/12/02 03:35:36;;;;;;;;;;;;;;;4.59;100.00;102643.34;5079525;28;20110;-73
2022/12/02 03:38:02;;;;;;;;;;;;;;;4.59;100.00;102645.94;5084871;28;19917;-72
2022/12/02 03:40:27;;;;;;;;;;;;;;;4.57;100.00;102642.44;5087301;28;20105;-72
2022/12/02 03:42:52;;;;;;;;;;;;;;;4.56;100.00;102631.19;5087369;28;19912;-72
2022/12/02 03:45:18;;;;;;;;;;;;;;;4.56;100.00;102622.53;5090550;28;19921;-72
2022/12/02 03:47:43;;;;;;;;;;;;;;;4.57;100.00;102619.97;5092849;28;19931;-72
2022/12/02 03:50:10;;;;;;;;;;;;;;;4.57;100.00;102617.38;5090443;28;19970;-72
2022/12/02 03:52:35;;;;;;;;;;;;;;;4.58;100.00;102607.84;5093417;28;20642;-72
2022/12/02 03:55:01;;;;;;;;;;;;;;;4.61;100.00;102603.56;5091122;28;19935;-72
2022/12/02 03:57:26;;;;;;;;;;;;;;;4.58;100.00;102610.44;5091831;28;19958;-74
2022/12/02 03:59:52;;;;;;;;;;;;;;;4.59;100.00;102619.97;5091216;28;19920;-74
2022/12/02 04:02:17;;;;;;;;;;;;;;;4.60;100.00;102614.81;5091793;28;19938;-74
2022/12/02 04:04:42;;;;;;;;;;;;;;;4.62;100.00;102620.03;5090428;28;19923;-74
2022/12/02 04:07:07;;;;;;;;;;;;;;;4.62;100.00;102622.63;5092178;28;19926;-74
2022/12/02 04:09:33;;;;;;;;;;;;;;;4.63;100.00;102608.78;5092062;28;19916;-74
2022/12/02 04:11:58;;;;;;;;;;;;;;;4.63;100.00;102613.97;5091144;28;19924;-77
2022/12/02 04:14:23;;;;;;;;;;;;;;;4.65;100.00;102616.59;5088597;28;19931;-75
2022/12/02 04:16:48;;;;;;;;;;;;;;;4.64;100.00;102615.72;5090860;28;19944;-75
2022/12/02 04:19:14;;;;;;;;;;;;;;;4.65;100.00;102612.25;5089725;28;20286;-75
2022/12/02 04:21:39;;;;;;;;;;;;;;;4.66;100.00;102606.22;5090348;28;19923;-75
2022/12/02 04:24:05;;;;;;;;;;;;;;;4.67;100.00;102607.09;5090699;28;19912;-75
2022/12/02 04:26:30;;;;;;;;;;;;;;;4.64;100.00;102601.84;5091110;28;20317;-75
2022/12/02 04:28:55;;;;;;;;;;;;;;;4.60;100.00;102603.53;5092008;28;20192;-75
2022/12/02 04:31:20;;;;;;;;;;;;;;;4.56;100.00;102600.03;5086619;28;19924;-75
2022/12/02 04:33:46;;;;;;;;;;;;;;;4.54;100.00;102600.88;5090626;28;19912;-75
2022/12/02 04:36:11;;;;;;;;;;;;;;;4.51;100.00;102593.06;5090585;28;19924;-74
2022/12/02 04:38:36;;;;;;;;;;;;;;;4.47;99.84;102602.53;5090898;28;19918;-74
2022/12/02 04:41:01;;;;;;;;;;;;;;;4.47;100.00;102597.31;5086144;28;19959;-74
2022/12/02 04:43:26;;;;;;;;;;;;;;;4.50;100.00;102588.72;5088318;28;19922;-75
2022/12/02 04:45:52;;;;;;;;;;;;;;;4.52;100.00;102597.41;5090185;28;19920;-75
2022/12/02 04:48:17;;;;;;;;;;;;;;;4.55;100.00;102581.88;5091196;28;19920;-74
2022/12/02 04:50:43;;;;;;;;;;;;;;;4.50;100.00;102580.94;5089663;28;20256;-74
2022/12/02 04:53:08;;;;;;;;;;;;;;;4.47;100.00;102586.09;5089891;28;19952;-75
2022/12/02 04:55:33;;;;;;;;;;;;;;;4.48;100.00;102585.25;5089980;28;19931;-75
2022/12/02 04:57:58;;;;;;;;;;;;;;;4.48;100.00;102580.94;5091759;28;20225;-75
2022/12/02 05:00:24;;;;;;;;;;;;;;;4.50;100.00;102576.63;5087881;28;20117;-74
2022/12/02 05:02:49;;;;;;;;;;;;;;;4.51;100.00;102569.69;5089057;28;19924;-74
2022/12/02 05:05:14;;;;;;;;;;;;;;;4.50;100.00;102571.44;5089484;28;19920;-75
2022/12/02 05:07:39;;;;;;;;;;;;;;;4.46;100.00;102577.44;5090351;28;19994;-74
2022/12/02 05:10:05;;;;;;;;;;;;;;;4.44;99.95;102576.56;5091360;28;19924;-74
2022/12/02 05:12:30;;;;;;;;;;;;;;;4.45;100.00;102569.63;5089590;28;19965;-74
2022/12/02 05:14:56;;;;;;;;;;;;;;;4.43;100.00;102562.69;5090420;28;19999;-75
2022/12/02 05:17:21;;;;;;;;;;;;;;;4.42;100.00;102565.25;5090499;28;19999;-75
2022/12/02 05:19:46;;;;;;;;;;;;;;;4.43;100.00;102565.28;5089470;28;19978;-74
2022/12/02 05:22:11;;;;;;;;;;;;;;;4.42;100.00;102560.97;5086253;28;19962;-74
2022/12/02 05:24:37;;;;;;;;;;;;;;;4.40;100.00;102562.69;5091049;28;19962;-75
2022/12/02 05:27:02;;;;;;;;;;;;;;;4.37;99.84;102565.22;5088032;28;19943;-75
2022/12/02 05:29:27;;;;;;;;;;;;;;;4.36;99.88;102563.47;5091043;28;19924;-75
2022/12/02 05:31:53;;;;;;;;;;;;;;;4.36;99.93;102571.25;5087649;28;19936;-74
2022/12/02 05:34:18;;;;;;;;;;;;;;;4.37;100.00;102564.34;5089673;28;20015;-75
2022/12/02 05:36:43;;;;;;;;;;;;;;;4.37;100.00;102562.63;5088850;28;19920;-75
2022/12/02 05:39:09;;;;;;;;;;;;;;;4.40;100.00;102556.59;5089534;28;20234;-75
2022/12/02 05:41:34;;;;;;;;;;;;;;;4.40;100.00;102567.88;5091196;28;19926;-74
2022/12/02 05:44:08;;;;;;;;;;;;;;;4.43;100.00;102564.44;5089584;28;19912;-74
2022/12/02 05:46:34;;;;;;;;;;;;;;;4.43;100.00;102572.22;5088671;28;19920;-74
2022/12/02 05:48:59;;;;;;;;;;;;;;;4.41;100.00;102558.34;5089144;28;20097;-74
2022/12/02 05:51:24;;;;;;;;;;;;;;;4.41;100.00;102561.81;5088013;28;19930;-74
2022/12/02 05:53:50;;;;;;;;;;;;;;;4.43;100.00;102562.69;5089344;28;19912;-74
2022/12/02 05:56:26;;;;;;;;;;;;;;;4.44;100.00;102561.00;5087801;28;19955;-75
2022/12/02 05:58:51;;;;;;;;;;;;;;;4.43;100.00;102557.50;5088155;28;19916;-75
2022/12/02 06:01:21;;;;;;;;;;;;;;;4.35;99.32;102553.97;5084182;28;19928;-75
2022/12/02 06:03:48;;;;;;;;;;;;;;;4.34;99.17;102552.19;5087255;28;20195;-75
2022/12/02 06:06:15;;;;;;;;;;;;;;;4.32;99.15;102559.09;5083575;28;19956;-76
2022/12/02 06:08:40;;;;;;;;;;;;;;;4.30;99.07;102559.94;5050380;28;19927;-76
2022/12/02 06:11:33;;;;;;;;;;;;;;;4.26;98.80;102559.03;5068877;28;20128;-76
2022/12/02 06:14:00;;;;;;;;;;;;;;;4.28;99.42;102557.31;5065919;28;19926;-76
2022/12/02 06:16:26;;;;;;;;;;;;;;;4.27;99.53;102560.75;5067960;28;20211;-76
2022/12/02 06:18:52;;;;;;;;;;;;;;;4.26;99.58;102564.22;5067396;28;19958;-76
2022/12/02 06:21:19;;;;;;;;;;;;;;;4.25;99.27;102564.19;5065234;28;20163;-76
2022/12/02 06:23:45;;;;;;;;;;;;;;;4.25;99.19;102566.78;5069059;28;19947;-76
2022/12/02 06:26:14;;;;;;;;;;;;;;;4.25;99.53;102557.28;5067899;28;19908;-77
2022/12/02 06:28:41;;;;;;;;;;;;;;;4.23;99.18;102559.84;5063137;28;19916;-77
2022/12/02 06:31:18;;;;;;;;;;;;;;;4.22;98.69;102552.03;5067160;28;20124;-76
2022/12/02 06:33:45;;;;;;;;;;;;;;;4.21;98.54;102556.34;5066418;28;19927;-76
2022/12/02 06:36:16;;;;;;;;;;;;;;;4.19;98.57;102559.81;5068555;28;20090;-77
2022/12/02 06:38:54;;;;;;;;;;;;;;;4.19;98.37;102559.81;5065747;28;19921;-76
2022/12/02 06:41:20;;;;;;;;;;;;;;;4.19;98.68;102557.22;5068088;28;19923;-76
2022/12/02 06:45:03;;;;;;;;;;;;;;;4.16;98.37;102558.03;5064085;28;19912;-76
2022/12/02 06:46:33;;;;;;;;;;;;;;;4.16;97.83;102557.16;5066761;28;19932;-77
2022/12/02 06:48:58;;;;;;;;;;;;;;;4.17;98.10;102561.50;5065282;28;19983;-76
2022/12/02 06:51:23;;;;;;;;;;;;;;;4.10;96.92;102549.31;5066133;28;19927;-75
2022/12/02 06:53:48;;;;;;;;;;;;;;;4.05;96.80;102554.41;5067992;28;19951;-74
2022/12/02 06:56:23;;;;;;;;;;;;;;;4.00;96.91;102572.50;5067897;28;19915;-75
2022/12/02 06:58:52;;;;;;;;;;;;;;;3.96;96.67;102570.69;5066607;28;20117;-76
2022/12/02 07:01:27;;;;;;;;;;;;;;;3.89;96.32;102563.69;5068102;28;19920;-74
2022/12/02 07:03:55;;;;;;;;;;;;;;;3.85;96.46;102564.50;5067878;28;20144;-76
2022/12/02 07:06:23;;;;;;;;;;;;;;;3.83;96.56;102564.47;5083865;28;20445;-75
2022/12/02 07:08:49;;;;;;;;;;;;;;;3.80;96.52;102564.44;5065248;28;19920;-75
2022/12/02 07:11:20;;;;;;;;;;;;;;;3.74;96.50;102569.50;5068604;28;19931;-75
2022/12/02 07:13:46;;;;;;;;;;;;;;;3.69;96.80;102572.88;5063200;28;20208;-75
2022/12/02 07:16:28;;;;;;;;;;;;;;;3.62;96.89;102567.63;5066796;28;19924;-75
2022/12/02 07:18:54;;;;;;;;;;;;;;;3.65;97.74;102571.97;5067301;28;20212;-75
2022/12/02 07:21:19;;;;;;;;;;;;;;;3.59;97.61;102570.16;5070430;28;19925;-75
2022/12/02 07:23:44;;;;;;;;;;;;;;;3.56;97.12;102570.09;5072000;28;19924;-75
2022/12/02 07:26:10;;;;;;;;;;;;;;;3.55;97.26;102578.72;5070262;28;19947;-75
2022/12/02 07:28:43;;;;;;;;;;;;;;;3.55;97.31;102573.56;5072479;28;20183;-75
2022/12/02 07:31:20;;;;;;;;;;;;;;;3.58;97.74;102586.53;5066983;28;19912;-75
2022/12/02 07:33:45;;;;;;;;;;;;;;;3.61;97.59;102583.13;5066329;28;20030;-76
2022/12/02 07:36:11;;;;;;;;;;;;;;;3.60;97.63;102590.03;5069842;28;20142;-75
2022/12/02 07:38:36;;;;;;;;;;;;;;;3.58;97.50;102586.53;5071356;28;19988;-75
2022/12/02 07:41:02;;;;;;;;;;;;;;;3.58;97.25;102580.47;5069711;28;19928;-75
2022/12/02 07:43:27;;;;;;;;;;;;;;;3.56;96.84;102588.22;5069778;28;19920;-75
2022/12/02 07:45:52;;;;;;;;;;;;;;;3.52;96.30;102583.00;5071215;28;19931;-75
2022/12/02 07:48:17;;;;;;;;;;;;;;;3.50;96.42;102595.06;5068732;28;19921;-75
2022/12/02 07:50:43;;;;;;;;;;;;;;;3.42;95.95;102594.91;5070276;28;19952;-75
2022/12/02 07:53:08;;;;;;;;;;;;;;;3.37;95.56;102600.00;5071742;28;19965;-75
2022/12/02 07:55:33;;;;;;;;;;;;;;;3.35;95.97;102603.44;5072732;28;19962;-75
2022/12/02 07:57:59;;;;;;;;;;;;;;;3.29;95.11;102601.59;5074359;28;19971;-75
2022/12/02 08:00:24;;;;;;;;;;;;;;;3.21;94.78;102595.41;5076630;28;19916;-75
2022/12/02 08:02:50;;;;;;;;;;;;;;;3.21;95.09;102604.03;5070787;28;19932;-75
2022/12/02 08:05:15;;;;;;;;;;;;;;;3.19;95.52;102599.69;5071441;28;19915;-75
2022/12/02 08:07:41;;;;;;;;;;;;;;;3.15;95.52;102605.66;5086722;28;20110;-75
2022/12/02 08:10:07;;;;;;;;;;;;;;;3.13;95.75;102605.63;5089259;28;20186;-75
2022/12/02 08:12:32;;;;;;;;;;;;;;;3.12;95.65;102601.28;5086914;28;19920;-75
2022/12/02 08:14:58;;;;;;;;;;;;;;;3.13;95.89;102597.88;5090392;28;20218;-76
2022/12/02 08:17:23;;;;;;;;;;;;;;;3.18;96.12;102603.97;5070360;28;19981;-76
2022/12/02 08:19:48;;;;;;;;;;;;;;;3.18;95.34;102593.63;5069477;28;19974;-76
2022/12/02 08:22:14;;;;;;;;;;;;;;;3.17;94.91;102602.25;5088006;28;20217;-76
2022/12/02 08:24:39;;;;;;;;;;;;;;;3.14;94.31;102606.50;5084272;28;20399;-76
2022/12/02 08:27:04;;;;;;;;;;;;;;;3.13;94.49;102608.22;5086982;28;20113;-76
2022/12/02 08:29:30;;;;;;;;;;;;;;;3.14;95.00;102602.19;5088540;28;19924;-76
2022/12/02 08:31:55;;;;;;;;;;;;;;;3.15;95.31;102603.94;5085201;28;20007;-76
2022/12/02 08:34:20;;;;;;;;;;;;;;;3.19;95.97;102599.69;5089596;28;20210;-76
2022/12/02 08:36:45;;;;;;;;;;;;;;;3.21;96.02;102603.19;5086419;28;20030;-76
2022/12/02 08:39:11;;;;;;;;;;;;;;;3.17;94.70;102602.25;5086574;28;19969;-76
2022/12/02 08:41:36;;;;;;;;;;;;;;;3.17;94.42;102606.56;5087731;28;19925;-76
2022/12/02 08:44:02;;;;;;;;;;;;;;;3.20;94.33;102610.09;5086983;28;20212;-76
2022/12/02 08:46:27;;;;;;;;;;;;;;;3.21;94.53;102598.84;5088351;28;19978;-76
2022/12/02 08:48:53;;;;;;;;;;;;;;;3.24;95.05;102601.53;5067856;28;20093;-76
2022/12/02 08:51:18;;;;;;;;;;;;;;;3.26;95.30;102602.41;5085477;28;20118;-76
2022/12/02 08:53:43;;;;;;;;;;;;;;;3.25;94.49;102604.97;5082567;28;19924;-76
2022/12/02 08:56:09;;;;;;;;;;;;;;;3.24;94.19;102601.53;5086689;28;19924;-76
2022/12/02 08:58:34;;;;;;;;;;;;;;;3.22;93.80;102612.66;5087812;28;19932;-76
2022/12/02 09:00:59;;;;;;;;;;;;;;;3.23;94.24;102617.88;5090313;28;19924;-76
2022/12/02 09:03:24;;;;;;;;;;;;;;;3.16;93.80;102607.41;5089082;28;19916;-76
2022/12/02 09:05:50;;;;;;;;;;;;;;;3.14;94.01;102607.34;5084579;28;19916;-76
2022/12/02 09:08:15;;;;;;;;;;;;;;;3.13;94.15;102603.03;5086101;28;19930;-76
2022/12/02 09:10:40;;;;;;;;;;;;;;;3.12;94.41;102609.06;5086484;28;19950;-76
2022/12/02 09:13:06;;;;;;;;;;;;;;;3.13;94.75;102610.81;5089281;28;20140;-76
2022/12/02 09:15:31;;;;;;;;;;;;;;;3.16;94.90;102592.72;5087094;28;20226;-76
2022/12/02 09:17:56;;;;;;;;;;;;;;;3.14;94.28;102607.34;5090578;28;19994;-76
2022/12/02 09:20:21;;;;;;;;;;;;;;;3.10;93.86;102608.16;5072475;28;19954;-76
2022/12/02 09:22:47;;;;;;;;;;;;;;;3.11;94.16;102609.03;5088499;28;20116;-76
2022/12/02 09:25:13;;;;;;;;;;;;;;;3.11;94.69;102599.56;5087862;28;20286;-76
2022/12/02 09:27:38;;;;;;;;;;;;;;;3.11;94.75;102606.44;5088818;28;20207;-76
2022/12/02 09:30:04;;;;;;;;;;;;;;;3.13;94.84;102612.50;5087841;28;20132;-76
2022/12/02 09:32:29;;;;;;;;;;;;;;;3.16;95.48;102615.16;5088322;28;19995;-76
2022/12/02 09:34:55;;;;;;;;;;;;;;;3.20;95.93;102616.94;5086608;28;19924;-76
2022/12/02 09:37:20;;;;;;;;;;;;;;;3.19;95.11;102610.91;5087232;28;19927;-76
2022/12/02 09:39:47;;;;;;;;;;;;;;;3.17;94.89;102610.00;5088045;28;20014;-76
2022/12/02 09:42:12;;;;;;;;;;;;;;;3.16;94.76;102616.03;5087711;28;19921;-76
2022/12/02 09:44:38;;;;;;;;;;;;;;;3.18;95.02;102614.31;5087033;28;20145;-76
2022/12/02 09:47:04;;;;;;;;;;;;;;;3.20;95.43;102611.78;5088233;28;20476;-76
2022/12/02 09:49:29;;;;;;;;;;;;;;;3.21;95.34;102617.00;5087075;28;19912;-77
2022/12/02 09:51:57;;;;;;;;;;;;;;;3.20;94.63;102611.78;5090600;28;19931;-76
2022/12/02 09:54:22;;;;;;;;;;;;;;;3.15;94.32;102616.88;5087096;28;19927;-76
2022/12/02 09:56:47;;;;;;;;;;;;;;;3.12;94.28;102610.78;5088938;28;19935;-76
2022/12/02 09:59:14;;;;;;;;;;;;;;;3.11;94.66;102607.31;5087024;28;20234;-76
2022/12/02 10:01:41;;;;;;;;;;;;;;;3.08;94.45;102607.25;5066837;28;19924;-76
2022/12/02 10:04:08;;;;;;;;;;;;;;;3.08;94.93;102600.34;5086836;28;19920;-76
2022/12/02 10:06:33;;;;;;;;;;;;;;;3.12;95.35;102606.47;5085574;28;19959;-76
2022/12/02 10:08:58;;;;;;;;;;;;;;;3.13;94.96;102600.47;5084944;28;20238;-76
2022/12/02 10:11:31;;;;;;;;;;;;;;;3.13;94.70;102582.34;5086674;28;19919;-76
2022/12/02 10:13:57;;;;;;;;;;;;;;;3.16;94.60;102589.28;5087349;28;19959;-76
2022/12/02 10:16:22;;;;;;;;;;;;;;;3.16;94.79;102584.09;5080780;28;19982;-76
2022/12/02 10:18:47;;;;;;;;;;;;;;;3.16;94.51;102584.97;5081253;28;19913;-76
2022/12/02 10:21:13;;;;;;;;;;;;;;;3.16;94.82;102584.09;5082568;28;20138;-76
2022/12/02 10:23:55;;;;;;;;;;;;;;;3.12;94.11;102577.97;5080021;28;19932;-76
2022/12/02 10:26:21;;;;;;;;;;;;;;;3.14;94.44;102576.28;5077097;28;19995;-76
2022/12/02 10:29:05;;;;;;;;;;;;;;;3.16;94.75;102574.59;5083483;28;19943;-76
2022/12/02 10:31:31;;;;;;;;;;;;;;;3.19;94.64;102571.22;5076637;28;20152;-76
2022/12/02 10:33:58;;;;;;;;;;;;;;;3.21;94.92;102570.38;5084365;28;19935;-76
2022/12/02 10:36:33;;;;;;;;;;;;;;;3.23;95.06;102575.59;5084324;28;19969;-76
2022/12/02 10:39:15;;;;;;;;;;;;;;;3.26;95.54;102566.16;5081033;28;19927;-76
2022/12/02 10:41:40;;;;;;;;;;;;;;;3.27;94.80;102567.03;5080676;28;19920;-76
2022/12/02 10:44:12;;;;;;;;;;;;;;;3.28;94.12;102565.31;5085366;28;20466;-76
2022/12/02 10:46:37;;;;;;;;;;;;;;;3.32;94.72;102561.94;5085143;28;19920;-76
2022/12/02 10:49:14;;;;;;;;;;;;;;;3.31;94.38;102549.81;5079994;28;19982;-76
2022/12/02 10:51:40;;;;;;;;;;;;;;;3.35;94.86;102549.03;5086733;28;20015;-76
2022/12/02 10:54:05;;;;;;;;;;;;;;;3.39;95.18;102536.16;5085416;28;19928;-76
2022/12/02 10:56:30;;;;;;;;;;;;;;;3.43;95.79;102534.50;5089114;28;19977;-76
2022/12/02 10:58:56;;;;;;;;;;;;;;;3.45;95.53;102535.38;5086055;28;19951;-76
2022/12/02 11:01:21;;;;;;;;;;;;;;;3.49;95.33;102537.16;5087774;28;19994;-76
2022/12/02 11:03:46;;;;;;;;;;;;;;;3.52;95.37;102552.75;5086164;28;19987;-76
2022/12/02 11:06:13;;;;;;;;;;;;;;;3.50;94.75;102541.50;5086315;28;19928;-76
2022/12/02 11:08:41;;;;;;;;;;;;;;;3.52;94.76;102537.22;5085827;28;19932;-76
2022/12/02 11:11:06;;;;;;;;;;;;;;;3.52;94.29;102536.34;5089772;28;20219;-76
2022/12/02 11:13:50;;;;;;;;;;;;;;;3.51;93.98;102532.91;5091515;28;19936;-76
2022/12/02 11:16:28;;;;;;;;;;;;;;;3.51;93.87;102529.41;5079553;28;19992;-76
2022/12/02 11:19:09;;;;;;;;;;;;;;;3.52;94.05;102524.28;5087626;28;20212;-76
2022/12/02 11:21:35;;;;;;;;;;;;;;;3.54;94.13;102529.47;5089891;28;19995;-76
2022/12/02 11:24:19;;;;;;;;;;;;;;;3.52;93.78;102529.44;5090238;28;19916;-76
2022/12/02 11:26:59;;;;;;;;;;;;;;;3.51;94.07;102519.97;5084311;28;20122;-76
2022/12/02 11:29:45;;;;;;;;;;;;;;;3.51;94.04;102517.38;5083894;28;20272;-76
2022/12/02 11:32:17;;;;;;;;;;;;;;;3.48;94.07;102521.63;5050046;28;19927;-76
2022/12/02 11:34:43;;;;;;;;;;;;;;;3.43;93.53;102518.94;5086486;28;19920;-76
2022/12/02 11:37:40;;;;;;;;;;;;;;;3.39;91.99;102524.94;5082698;28;19927;-76
2022/12/02 11:40:26;;;;;;;;;;;;;;;3.39;91.99;102519.75;5061680;28;19927;-76
2022/12/02 11:42:51;;;;;;;;;;;;;;;3.36;91.86;102511.94;5089387;28;19966;-76
2022/12/02 11:45:16;;;;;;;;;;;;;;;3.32;91.61;102513.59;5090234;28;20001;-76
2022/12/02 11:47:54;;;;;;;;;;;;;;;3.31;91.35;102510.97;5079357;28;19965;-76
2022/12/02 11:50:28;;;;;;;;;;;;;;;3.28;91.95;102523.91;5090096;28;19921;-76
2022/12/02 11:53:09;;;;;;;;;;;;;;;3.24;91.42;102523.84;5090188;28;20116;-76
2022/12/02 11:55:38;;;;;;;;;;;;;;;3.21;91.22;102526.38;5078941;28;20116;-76
2022/12/02 11:58:15;;;;;;;;;;;;;;;3.18;91.03;102528.03;5087910;28;20399;-76
2022/12/02 12:00:44;;;;;;;;;;;;;;;3.16;90.89;102519.38;5080161;28;19928;-76
2022/12/02 12:03:13;;;;;;;;;;;;;;;3.16;91.00;102524.53;5088031;28;19924;-76
2022/12/02 12:05:39;;;;;;;;;;;;;;;3.13;90.93;102533.16;5075507;28;19925;-76
2022/12/02 12:08:05;;;;;;;;;;;;;;;3.12;91.13;102522.75;5090672;28;19928;-76
2022/12/02 12:10:31;;;;;;;;;;;;;;;3.10;91.15;102524.44;5081076;28;19932;-76
2022/12/02 12:13:09;;;;;;;;;;;;;;;3.07;91.62;102522.66;5088844;28;20254;-76
2022/12/02 12:15:47;;;;;;;;;;;;;;;3.00;92.14;102516.53;5088989;28;19908;-76
2022/12/02 12:18:32;;;;;;;;;;;;;;;3.01;92.23;102519.97;5089440;28;20010;-76
2022/12/02 12:20:57;;;;;;;;;;;;;;;3.03;92.16;102515.69;5090434;28;20215;-76
2022/12/02 12:23:27;;;;;;;;;;;;;;;3.02;91.95;102509.66;5086489;28;19951;-76
2022/12/02 12:25:53;;;;;;;;;;;;;;;3.00;91.69;102510.44;5089212;28;19924;-76
2022/12/02 12:28:21;;;;;;;;;;;;;;;3.04;92.02;102522.63;5088091;28;19924;-76
2022/12/02 12:30:47;;;;;;;;;;;;;;;3.00;91.26;102513.03;5091101;28;19920;-75
2022/12/02 12:33:12;;;;;;;;;;;;;;;3.01;91.46;102509.63;5079243;28;20045;-75
2022/12/02 12:35:37;;;;;;;;;;;;;;;2.99;91.19;102512.19;5074881;28;19920;-75
2022/12/02 12:38:02;;;;;;;;;;;;;;;3.02;91.22;102519.13;5083657;28;20147;-75
2022/12/02 12:40:28;;;;;;;;;;;;;;;2.99;90.65;102519.09;5073752;28;19974;-75
2022/12/02 12:42:53;;;;;;;;;;;;;;;2.96;90.03;102517.28;5088814;28;20093;-75
2022/12/02 12:45:18;;;;;;;;;;;;;;;2.96;90.21;102513.84;5085310;28;19924;-75